Batumi International Airport
UGSB : rendu visible

Aérodrome :











RETROUVEZ-NOUS SUR...

 
LOGIN :

S'inscrire | Disclaimer

   EN    FR    IT 

 









Légende :    VFR   VFR Marginal   IFR   IFR Intensif   IFR Très Intensif
Visi : 
Plafond : 
>= 8 km
>= 3000ft
5 à 8 km
1000 à 3000 ft
1500m à 5 km
500 à 1000 ft
800 à 1500m
200 à 500 ft
< 800m
< 200 ft
Symboles :   Orages  Brouillard  Fortes neiges  Fortes précipitations  Vent > 20 kt







- Altitude de l'aérodrome : 105 ft
- Code IATA : BUS


UGSB - Batumi International

DERNIER METAR :
  • 311230Z 25005KT 9999 FEW026 SCT060 18/15 Q1012 R13/CLRD70 NOSIG

METARs EXPIRÉS :
  • 311200Z 26005KT 9999 FEW023 SCT060 18/15 Q1012 R13/70D NOSIG
  • 311130Z 27005KT 9999 FEW023 SCT070 20/16 Q1012 R13/CLRD70 NOSIG
  • 311100Z 26005KT 9999 FEW023 BKN070 20/16 Q1012 R13/CLRD70 NOSIG
  • 311030Z 25004KT 9999 SCT023 BKN060 19/15 Q1012 R13/CLRD70 NOSIG
  • 311000Z 27003KT 9999 SCT023 BKN050 19/15 Q1013 R13/70D NOSIG
  • 310930Z 27003KT 230V290 9999 SCT023 BKN070 19/15 Q1013 R13/70D NOSIG

TAF TAF UGSB
Valide du 31 à 12h jusqu'au 01 à 12h UTC


311100Z 3112/0112 25012KT 9999 SCT020 BKN070 TX20/3112Z TN12/0101Z
TEMPO 3112/3120 25022KT 4000 TSRA SCT012CB BKN020
TEMPO 3120/0104 VRB28KT 3000 TSRA BKN010 OVC020CB
FIR UGGG / Asie



MET'MAP, la Météo Aéronautique d'un coup d'oeil ! - Copyright ORBIFLY Décembre 2007 - Disclaimer

ORBIFLY MET'MAP TEAM :

Programmation & Développement : Alexandra Zaïnal
Conception & Développement : Baudouin d'Aumeries
Co-Programmation & Développement : Marc-Olivier Méhu
Soutien technique & logistique : Manuel Goepfert

Contact : metmap@orbifly.com




SOURCES & CREDITS :

   NOAA       Earth
Advisory